Hlavní strana
METAR-TAF:

METAR-TAF

Letiště :

Notodden, Norsko

zeměpisná šířka: 59-34N, zeměpisná délka: 009-13E, výška: 19 m

Aktuální stav počasí

Zpráva byla vytvořena před 21 hodinami a 10 minutami, v 12:50 UTC
Východojihovýchodní vítr 7 kt
Teplota 21°C
Vlhkost vzduchu 30%
Tlak 1029 hPa
Viditelnost 10 km a více
Žádná oblačnost pod 1500 m, nevyskytují se cumulonimby.

METAR: ENNO 291250Z 12007KT CAVOK 21/03 Q1029

Čas: 12:00 (10:00 UTC)


TAF: chybějící

Stav a předpovědi počasí z více než 4 000 letišť (zprávy METAR a TAF).

Červené a žluté tečky na mapě představují dostupné meteorologické stanice.

Když kurzor umístíte na tečku, zobrazí se název stanice.

Pak kliknutím zobrazíte stav a předpověď počasí.

Chcete-li změnit mapu, kliknutím na zelené tlačítko se znaménkem +mapu přiblížíte, kliknutím na zelené tlačítko se znaménkem – mapu oddálíte a kliknutím na zelené šipky přejdete na sousední mapy.


METAR-TAF: